Welcome to Northern Hawkes Bay. New Zealand.
PWS Header
      nz Flag



Hit Counter


W3C Valid W3C Valid logo


    Wairoa

Select any of the Stations below to visit their websites.










Historic Data from Weather Underground
Select the location of interest below. Wairoa is the default. Please have patience, this Data is slow to load in.
Northern Hawkes Bay Historical Data
Daily Summary for November 30, 2017 Units:  Metric    English   Both
« Previous Day
Next Day »
Daily Weekly Monthly Yearly Custom
  High: Low: Average:
Temperature: 23.1 °C 15.3 °C 18.4 °C
Dew Point: 17.8 °C 14.3 °C 16.3 °C
Humidity: 99% 67% 88%
Wind Speed: 14.8km/h 0.0km/h 4.4km/h
Wind Gust: 24.5km/h - -
Wind- - South
Pressure: 1027.0 hPa 1020.9 hPa -
Precipitation: 0.0 mm    
Historical Graphs
 
 
Tabular Data for November 30, 2017
Time Temperature Dew Point Pressure Wind Wind Speed Wind Gust Humidity Rainfall Rate (Hourly) solar
00:00 16.6 °C 15.9 °C 1021.9 hPa Calm     96% 0.0 mm 0 W/m2
00:05 16.5 °C 15.9 °C 1021.6 hPa Calm     96% 0.0 mm 0 W/m2
00:10 16.3 °C 15.7 °C 1021.6 hPa Calm     96% 0.0 mm 0 W/m2
00:15 16.2 °C 15.6 °C 1021.6 hPa Calm     96% 0.0 mm 0 W/m2
00:20 16.2 °C 15.6 °C 1021.6 hPa Calm     96% 0.0 mm 0 W/m2
00:25 16.3 °C 15.8 °C 1021.6 hPa Calm     97% 0.0 mm 0 W/m2
00:35 16.2 °C 15.9 °C 1021.6 hPa Calm     98% 0.0 mm 0 W/m2
00:40 16.2 °C 15.9 °C 1021.6 hPa Calm     98% 0.0 mm 0 W/m2
00:45 16.2 °C 15.9 °C 1021.6 hPa Calm     98% 0.0 mm 0 W/m2
00:50 16.2 °C 15.9 °C 1021.6 hPa Calm     98% 0.0 mm 0 W/m2
00:55 16.1 °C 15.8 °C 1021.6 hPa Calm     98% 0.0 mm 0 W/m2
01:05 16.1 °C 15.8 °C 1021.2 hPa Calm     98% 0.0 mm 0 W/m2
01:10 16.1 °C 15.8 °C 1021.6 hPa Calm     98% 0.0 mm 0 W/m2
01:15 16.1 °C 15.8 °C 1021.2 hPa Calm     98% 0.0 mm 0 W/m2
01:20 16.1 °C 15.8 °C 1021.2 hPa Calm     98% 0.0 mm 0 W/m2
01:25 16.2 °C 15.9 °C 1021.6 hPa Calm     98% 0.0 mm 0 W/m2
01:30 16.2 °C 15.9 °C 1021.2 hPa North 2.6 km/h 5.0 km/h 98% 0.0 mm 0 W/m2
01:55 16.3 °C 16.0 °C 1021.2 hPa NW 3.5 km/h 8.7 km/h 98% 0.0 mm 0 W/m2
02:05 16.1 °C 15.8 °C 1021.6 hPa NNW 5.0 km/h 7.2 km/h 98% 0.0 mm 0 W/m2
02:15 16.0 °C 15.7 °C 1021.2 hPa NNW 2.6 km/h 6.1 km/h 98% 0.0 mm 0 W/m2
02:20 16.0 °C 15.7 °C 1021.2 hPa NNW 1.1 km/h 5.0 km/h 98% 0.0 mm 0 W/m2
02:30 16.0 °C 15.7 °C 1021.2 hPa North 1.1 km/h 5.0 km/h 98% 0.0 mm 0 W/m2
02:40 16.0 °C 15.7 °C 1021.2 hPa Calm   6.1 km/h 98% 0.0 mm 0 W/m2
02:45 16.0 °C 15.7 °C 1020.9 hPa Calm   2.6 km/h 98% 0.0 mm 0 W/m2
02:50 16.0 °C 15.7 °C 1021.2 hPa Calm   2.6 km/h 98% 0.0 mm 0 W/m2
03:00 16.0 °C 15.7 °C 1020.9 hPa Calm     98% 0.0 mm 0 W/m2
03:05 16.0 °C 15.7 °C 1020.9 hPa Calm     98% 0.0 mm 0 W/m2
03:10 16.0 °C 15.7 °C 1020.9 hPa Calm   2.6 km/h 98% 0.0 mm 0 W/m2
03:15 16.0 °C 15.7 °C 1020.9 hPa North 1.1 km/h 3.5 km/h 98% 0.0 mm 0 W/m2
03:20 16.0 °C 15.7 °C 1020.9 hPa NNW 2.6 km/h 5.0 km/h 98% 0.0 mm 0 W/m2
03:25 15.9 °C 15.8 °C 1020.9 hPa NW 1.1 km/h 9.7 km/h 99% 0.0 mm 0 W/m2
03:30 15.9 °C 15.8 °C 1020.9 hPa NW 5.0 km/h 9.7 km/h 99% 0.0 mm 0 W/m2
03:35 15.8 °C 15.7 °C 1020.9 hPa NW 3.5 km/h 7.2 km/h 99% 0.0 mm 0 W/m2
03:40 15.7 °C 15.6 °C 1020.9 hPa NNW 2.6 km/h 7.2 km/h 99% 0.0 mm 0 W/m2
03:45 15.6 °C 15.4 °C 1021.2 hPa NW 5.0 km/h 7.2 km/h 99% 0.0 mm 0 W/m2
03:50 15.6 °C 15.4 °C 1020.9 hPa Calm   7.2 km/h 99% 0.0 mm 0 W/m2
03:55 15.5 °C 15.3 °C 1020.9 hPa NNW 1.1 km/h 7.2 km/h 99% 0.0 mm 0 W/m2
04:00 15.5 °C 15.3 °C 1020.9 hPa North 1.1 km/h 5.0 km/h 99% 0.0 mm 0 W/m2
04:05 15.6 °C 15.4 °C 1020.9 hPa Calm   5.0 km/h 99% 0.0 mm 0 W/m2
04:15 15.6 °C 15.4 °C 1020.9 hPa North 1.1 km/h 5.0 km/h 99% 0.0 mm 0 W/m2
04:20 15.6 °C 15.4 °C 1020.9 hPa North 1.1 km/h 5.0 km/h 99% 0.0 mm 0 W/m2
04:25 15.6 °C 15.4 °C 1020.9 hPa North 1.1 km/h 5.0 km/h 99% 0.0 mm 0 W/m2
04:30 15.6 °C 15.4 °C 1021.2 hPa North 1.1 km/h 5.0 km/h 99% 0.0 mm 0 W/m2
04:40 15.7 °C 15.6 °C 1020.9 hPa North 2.6 km/h 6.1 km/h 99% 0.0 mm 0 W/m2
04:45 15.7 °C 15.6 °C 1020.9 hPa North 1.1 km/h 6.1 km/h 99% 0.0 mm 0 W/m2
04:50 15.7 °C 15.6 °C 1020.9 hPa North 5.0 km/h 7.2 km/h 99% 0.0 mm 0 W/m2
04:55 15.7 °C 15.6 °C 1020.9 hPa North 2.6 km/h 7.2 km/h 99% 0.0 mm 0 W/m2
05:05 15.7 °C 15.6 °C 1021.2 hPa NNW 2.6 km/h 6.1 km/h 99% 0.0 mm 0 W/m2
05:15 15.8 °C 15.7 °C 1021.2 hPa NNW 3.5 km/h 8.7 km/h 99% 0.0 mm 0 W/m2
05:20 15.8 °C 15.7 °C 1021.2 hPa North 2.6 km/h 8.7 km/h 99% 0.0 mm 0 W/m2
05:30 15.8 °C 15.7 °C 1021.2 hPa NNE 1.1 km/h 5.0 km/h 99% 0.0 mm 0 W/m2
05:35 15.7 °C 15.6 °C 1021.2 hPa NNE 2.6 km/h 5.0 km/h 99% 0.0 mm 0 W/m2
05:41 15.7 °C 15.6 °C 1021.6 hPa North 1.1 km/h 5.0 km/h 99% 0.0 mm 0 W/m2
05:46 15.7 °C 15.6 °C 1021.6 hPa North 2.6 km/h 5.0 km/h 99% 0.0 mm 0 W/m2
05:51 15.7 °C 15.6 °C 1021.6 hPa North 1.1 km/h 6.1 km/h 99% 0.0 mm 0 W/m2
05:56 15.7 °C 15.6 °C 1021.6 hPa Calm   6.1 km/h 99% 0.0 mm 0 W/m2
06:01 15.7 °C 15.6 °C 1021.6 hPa NNE 2.6 km/h 5.0 km/h 99% 0.0 mm 0 W/m2
06:06 15.7 °C 15.6 °C 1021.6 hPa North 1.1 km/h 5.0 km/h 99% 0.0 mm 0 W/m2
06:11 15.8 °C 15.7 °C 1021.6 hPa North 3.5 km/h 5.0 km/h 99% 0.0 mm 2 W/m2
06:21 15.8 °C 15.7 °C 1021.6 hPa Calm   5.0 km/h 99% 0.0 mm 5 W/m2
06:26 15.8 °C 15.7 °C 1021.6 hPa Calm   3.5 km/h 99% 0.0 mm 6 W/m2
06:37 15.9 °C 15.8 °C 1021.9 hPa Calm   3.5 km/h 99% 0.0 mm 10 W/m2
06:47 15.9 °C 15.8 °C 1021.9 hPa North 6.1 km/h 7.2 km/h 99% 0.0 mm 2 W/m2
06:52 15.8 °C 15.7 °C 1021.9 hPa North 2.6 km/h 7.2 km/h 99% 0.0 mm 5 W/m2
06:57 15.8 °C 15.7 °C 1021.9 hPa NNW 2.6 km/h 8.7 km/h 99% 0.0 mm 5 W/m2
07:07 15.8 °C 15.7 °C 1022.2 hPa NNW 2.6 km/h 8.7 km/h 99% 0.0 mm 9 W/m2
07:12 15.8 °C 15.7 °C 1022.2 hPa Calm   7.2 km/h 99% 0.0 mm 11 W/m2
07:27 15.8 °C 15.7 °C 1022.2 hPa NNW 3.5 km/h 7.2 km/h 99% 0.0 mm 17 W/m2
07:32 15.8 °C 15.7 °C 1022.2 hPa Calm   7.2 km/h 99% 0.0 mm 19 W/m2
07:37 15.9 °C 15.8 °C 1022.2 hPa Calm   7.2 km/h 99% 0.0 mm 20 W/m2
07:42 16.0 °C 15.7 °C 1022.2 hPa Calm   7.2 km/h 98% 0.0 mm 17 W/m2
07:47 16.1 °C 15.8 °C 1022.2 hPa Calm   6.1 km/h 98% 0.0 mm 17 W/m2
07:52 16.1 °C 15.8 °C 1022.2 hPa North 1.1 km/h 6.1 km/h 98% 0.0 mm 24 W/m2
07:57 16.1 °C 15.8 °C 1022.6 hPa North 2.6 km/h 6.1 km/h 98% 0.0 mm 35 W/m2
08:02 16.1 °C 15.8 °C 1022.6 hPa North 3.5 km/h 6.1 km/h 98% 0.0 mm 41 W/m2
08:07 16.1 °C 15.8 °C 1022.6 hPa NNW 1.1 km/h 7.2 km/h 98% 0.0 mm 41 W/m2
08:12 16.3 °C 16.0 °C 1022.6 hPa NNW 1.1 km/h 7.2 km/h 98% 0.0 mm 53 W/m2
08:17 16.5 °C 16.2 °C 1022.6 hPa WSW 1.1 km/h 3.5 km/h 98% 0.0 mm 63 W/m2
08:27 16.6 °C 16.3 °C 1022.9 hPa NNW 1.1 km/h 5.0 km/h 98% 0.0 mm 74 W/m2
08:37 16.9 °C 16.6 °C 1022.9 hPa NNW 1.1 km/h 3.5 km/h 98% 0.0 mm 61 W/m2
08:47 17.5 °C 16.9 °C 1022.9 hPa SSW 6.1 km/h 11.1 km/h 96% 0.0 mm 49 W/m2
08:52 17.6 °C 16.9 °C 1022.9 hPa SSW 2.6 km/h 11.1 km/h 96% 0.0 mm 55 W/m2
08:57 17.8 °C 17.0 °C 1023.2 hPa South 6.1 km/h 13.4 km/h 95% 0.0 mm 72 W/m2
09:02 17.8 °C 16.8 °C 1023.2 hPa SSW 6.1 km/h 13.4 km/h 94% 0.0 mm 79 W/m2
09:07 17.9 °C 16.9 °C 1023.2 hPa SSW 5.0 km/h 15.8 km/h 94% 0.0 mm 84 W/m2
09:17 18.0 °C 16.9 °C 1023.2 hPa SSW 5.0 km/h 12.2 km/h 93% 0.0 mm 98 W/m2
09:22 18.2 °C 16.9 °C 1023.2 hPa SSW 7.2 km/h 13.4 km/h 92% 0.0 mm 109 W/m2
09:27 18.3 °C 17.0 °C 1023.2 hPa SSW 7.2 km/h 13.4 km/h 92% 0.0 mm 146 W/m2
09:32 18.4 °C 16.9 °C 1023.2 hPa SSW 7.2 km/h 13.4 km/h 91% 0.0 mm 169 W/m2
09:42 18.9 °C 17.4 °C 1023.6 hPa South 5.0 km/h 13.4 km/h 91% 0.0 mm 160 W/m2
10:00 19.3 °C 17.3 °C 1023.6 hPa SSW 8.7 km/h 14.8 km/h 88% 0.0 mm 309 W/m2
10:05 19.5 °C 17.3 °C 1023.9 hPa SSW 7.2 km/h 15.8 km/h 87% 0.0 mm 289 W/m2
10:20 19.1 °C 17.1 °C 1023.9 hPa South 9.7 km/h 17.2 km/h 88% 0.0 mm 219 W/m2
10:35 19.2 °C 17.2 °C 1023.9 hPa SSW 9.7 km/h 18.3 km/h 88% 0.0 mm 330 W/m2
10:40 19.3 °C 17.1 °C 1023.9 hPa SSW 2.6 km/h 18.3 km/h 87% 0.0 mm 259 W/m2
10:45 19.6 °C 17.4 °C 1024.3 hPa SSW 13.4 km/h 17.2 km/h 87% 0.0 mm 281 W/m2
10:50 19.4 °C 17.2 °C 1023.9 hPa SSW 8.7 km/h 18.3 km/h 87% 0.0 mm 281 W/m2
10:55 19.3 °C 17.1 °C 1024.3 hPa South 9.7 km/h 18.3 km/h 87% 0.0 mm 290 W/m2
11:10 19.6 °C 17.2 °C 1023.9 hPa SSW 12.2 km/h 19.5 km/h 86% 0.0 mm 448 W/m2
11:30 20.2 °C 17.4 °C 1023.9 hPa South 7.2 km/h 18.3 km/h 84% 0.0 mm 403 W/m2
11:35 20.2 °C 17.2 °C 1023.9 hPa South 11.1 km/h 17.2 km/h 83% 0.0 mm 449 W/m2
11:45 20.2 °C 17.4 °C 1024.3 hPa SSW 12.2 km/h 20.9 km/h 84% 0.0 mm 996 W/m2
11:50 20.5 °C 17.3 °C 1024.3 hPa SSW 13.4 km/h 20.9 km/h 82% 0.0 mm 834 W/m2
11:55 20.8 °C 17.1 °C 1024.3 hPa South 9.7 km/h 20.9 km/h 79% 0.0 mm 696 W/m2
12:10 20.2 °C 17.1 °C 1024.3 hPa SSW 8.7 km/h 19.5 km/h 82% 0.0 mm 419 W/m2
12:15 20.2 °C 17.2 °C 1024.3 hPa SSW 11.1 km/h 21.9 km/h 83% 0.0 mm 322 W/m2
12:25 20.0 °C 17.2 °C 1024.3 hPa SSW 12.2 km/h 20.9 km/h 84% 0.0 mm 349 W/m2
12:30 20.0 °C 17.2 °C 1024.3 hPa SSW 11.1 km/h 20.9 km/h 84% 0.0 mm 330 W/m2
12:35 20.1 °C 17.1 °C 1024.3 hPa SSW 9.7 km/h 19.5 km/h 83% 0.0 mm 348 W/m2
12:40 20.2 °C 17.2 °C 1024.3 hPa SSW 7.2 km/h 17.2 km/h 83% 0.0 mm 328 W/m2
12:45 20.2 °C 17.2 °C 1023.9 hPa SSW 11.1 km/h 17.2 km/h 83% 0.0 mm 417 W/m2
12:50 20.2 °C 17.1 °C 1024.3 hPa SW 8.7 km/h 19.5 km/h 82% 0.0 mm 389 W/m2
12:55 20.6 °C 17.4 °C 1024.3 hPa SSW 13.4 km/h 19.5 km/h 82% 0.0 mm 346 W/m2
13:00 20.2 °C 17.2 °C 1024.3 hPa SSW 9.7 km/h 17.2 km/h 83% 0.0 mm 346 W/m2
13:05 20.2 °C 17.2 °C 1024.3 hPa SSW 11.1 km/h 17.2 km/h 83% 0.0 mm 380 W/m2
13:10 20.2 °C 17.2 °C 1024.3 hPa SSW 9.7 km/h 17.2 km/h 83% 0.0 mm 614 W/m2
13:15 20.2 °C 17.4 °C 1023.9 hPa SSW 13.4 km/h 18.3 km/h 84% 0.0 mm 949 W/m2
13:20 20.6 °C 17.6 °C 1023.9 hPa SSW 5.0 km/h 18.3 km/h 83% 0.0 mm 878 W/m2
13:40 21.2 °C 17.8 °C 1023.9 hPa SSW 13.4 km/h 17.2 km/h 81% 0.0 mm 803 W/m2
13:46 20.8 °C 17.4 °C 1023.9 hPa SSW 9.7 km/h 18.3 km/h 81% 0.0 mm 373 W/m2
13:56 20.8 °C 17.8 °C 1023.9 hPa South 8.7 km/h 19.5 km/h 83% 0.0 mm 237 W/m2
14:11 21.2 °C 17.2 °C 1023.9 hPa South 14.8 km/h 18.3 km/h 78% 0.0 mm 757 W/m2
14:21 21.1 °C 17.7 °C 1023.6 hPa South 8.7 km/h 24.5 km/h 81% 0.0 mm 706 W/m2
14:26 21.6 °C 17.6 °C 1023.6 hPa South 5.0 km/h 24.5 km/h 78% 0.0 mm 864 W/m2
14:36 21.5 °C 17.7 °C 1023.6 hPa South 9.7 km/h 18.3 km/h 79% 0.0 mm 724 W/m2
14:41 21.3 °C 17.1 °C 1023.6 hPa South 14.8 km/h 18.3 km/h 77% 0.0 mm 449 W/m2
14:46 21.3 °C 17.5 °C 1023.9 hPa SSE 13.4 km/h 18.3 km/h 79% 0.0 mm 699 W/m2
15:01 21.2 °C 17.2 °C 1023.9 hPa South 11.1 km/h 20.9 km/h 78% 0.0 mm 694 W/m2
15:06 21.3 °C 17.5 °C 1023.9 hPa South 7.2 km/h 18.3 km/h 79% 0.0 mm 667 W/m2
15:16 21.6 °C 17.2 °C 1023.9 hPa South 8.7 km/h 17.2 km/h 76% 0.0 mm 638 W/m2
15:21 21.5 °C 17.1 °C 1023.6 hPa South 7.2 km/h 18.3 km/h 76% 0.0 mm 641 W/m2
15:26 21.6 °C 17.0 °C 1023.6 hPa South 8.7 km/h 18.3 km/h 75% 0.0 mm 623 W/m2
15:36 21.6 °C 17.0 °C 1023.6 hPa South 6.1 km/h 24.5 km/h 75% 0.0 mm 600 W/m2
15:41 22.5 °C 17.4 °C 1023.6 hPa South 6.1 km/h 24.5 km/h 73% 0.0 mm 595 W/m2
15:46 22.2 °C 16.7 °C 1023.6 hPa SSE 5.0 km/h 18.3 km/h 71% 0.0 mm 581 W/m2
15:51 22.2 °C 16.7 °C 1023.6 hPa SSE 7.2 km/h 20.9 km/h 71% 0.0 mm 575 W/m2
16:01 22.5 °C 17.2 °C 1023.6 hPa South 5.0 km/h 23.3 km/h 72% 0.0 mm 554 W/m2
16:06 22.7 °C 17.2 °C 1023.6 hPa SSE 7.2 km/h 18.3 km/h 71% 0.0 mm 542 W/m2
16:11 22.4 °C 16.9 °C 1023.6 hPa SSE 5.0 km/h 18.3 km/h 71% 0.0 mm 530 W/m2
16:21 22.4 °C 16.9 °C 1023.6 hPa SE 6.1 km/h 19.5 km/h 71% 0.0 mm 507 W/m2
16:26 22.2 °C 17.2 °C 1023.6 hPa SSE 3.5 km/h 15.8 km/h 73% 0.0 mm 494 W/m2
16:31 22.2 °C 16.7 °C 1023.6 hPa SSE 11.1 km/h 18.3 km/h 71% 0.0 mm 482 W/m2
16:36 22.0 °C 16.7 °C 1023.6 hPa SE 3.5 km/h 18.3 km/h 72% 0.0 mm 472 W/m2
16:42 22.5 °C 17.0 °C 1023.6 hPa SSE 11.1 km/h 15.8 km/h 71% 0.0 mm 459 W/m2
16:47 21.7 °C 16.7 °C 1023.6 hPa SSE 8.7 km/h 17.2 km/h 73% 0.0 mm 445 W/m2
16:57 22.2 °C 17.2 °C 1023.6 hPa SSE 3.5 km/h 17.2 km/h 73% 0.0 mm 419 W/m2
17:07 22.2 °C 16.9 °C 1023.6 hPa SSE 7.2 km/h 17.2 km/h 72% 0.0 mm 396 W/m2
17:12 22.0 °C 16.5 °C 1023.6 hPa SSE 8.7 km/h 17.2 km/h 71% 0.0 mm 382 W/m2
17:22 21.8 °C 17.0 °C 1023.6 hPa SSE 5.0 km/h 17.2 km/h 74% 0.0 mm 356 W/m2
17:27 22.0 °C 16.7 °C 1023.2 hPa SSE 6.1 km/h 18.3 km/h 72% 0.0 mm 346 W/m2
17:37 21.7 °C 16.9 °C 1023.6 hPa SSE 11.1 km/h 18.3 km/h 74% 0.0 mm 321 W/m2
17:42 21.8 °C 17.4 °C 1023.6 hPa SSE 7.2 km/h 21.9 km/h 76% 0.0 mm 310 W/m2
17:47 22.1 °C 17.1 °C 1023.2 hPa SSE 7.2 km/h 21.9 km/h 73% 0.0 mm 298 W/m2
17:52 21.8 °C 17.0 °C 1023.6 hPa SSE 6.1 km/h 14.8 km/h 74% 0.0 mm 286 W/m2
17:57 22.2 °C 17.2 °C 1023.6 hPa SSE 3.5 km/h 14.8 km/h 73% 0.0 mm 275 W/m2
18:02 22.6 °C 17.3 °C 1023.2 hPa SE 5.0 km/h 12.2 km/h 72% 0.0 mm 263 W/m2
18:07 22.6 °C 17.1 °C 1023.2 hPa SE 7.2 km/h 13.4 km/h 71% 0.0 mm 252 W/m2
18:12 22.5 °C 17.0 °C 1023.6 hPa ESE 1.1 km/h 13.4 km/h 71% 0.0 mm 238 W/m2
18:17 22.9 °C 17.2 °C 1023.6 hPa SE 3.5 km/h 11.1 km/h 70% 0.0 mm 231 W/m2
18:27 22.9 °C 16.7 °C 1023.6 hPa SE 5.0 km/h 12.2 km/h 68% 0.0 mm 209 W/m2
18:32 23.0 °C 16.8 °C 1023.6 hPa ESE 5.0 km/h 12.2 km/h 68% 0.0 mm 199 W/m2
18:37 23.1 °C 16.9 °C 1023.6 hPa ESE 5.0 km/h 12.2 km/h 68% 0.0 mm 191 W/m2
18:42 22.8 °C 16.4 °C 1023.6 hPa ESE 6.1 km/h 12.2 km/h 67% 0.0 mm 181 W/m2
18:52 22.4 °C 16.7 °C 1023.9 hPa SE 3.5 km/h 12.2 km/h 70% 0.0 mm 161 W/m2
18:57 22.5 °C 17.0 °C 1023.9 hPa SE 2.6 km/h 11.1 km/h 71% 0.0 mm 149 W/m2
19:02 22.5 °C 17.0 °C 1023.9 hPa SE 3.5 km/h 13.4 km/h 71% 0.0 mm 140 W/m2
19:07 22.2 °C 16.7 °C 1023.9 hPa ESE 6.1 km/h 14.8 km/h 71% 0.0 mm 131 W/m2
19:32 21.4 °C 16.8 °C 1024.3 hPa ESE 2.6 km/h 9.7 km/h 75% 0.0 mm 80 W/m2
19:37 21.5 °C 16.9 °C 1024.3 hPa SE 6.1 km/h 11.1 km/h 75% 0.0 mm 69 W/m2
19:43 21.3 °C 16.9 °C 1024.3 hPa SE 8.7 km/h 13.4 km/h 76% 0.0 mm 56 W/m2
19:48 20.9 °C 16.7 °C 1024.3 hPa SE 3.5 km/h 13.4 km/h 77% 0.0 mm 45 W/m2
19:53 20.6 °C 16.4 °C 1024.3 hPa ESE 3.5 km/h 9.7 km/h 77% 0.0 mm 34 W/m2
20:03 19.5 °C 16.3 °C 1024.6 hPa ESE 5.0 km/h 9.7 km/h 82% 0.0 mm 9 W/m2
20:08 19.1 °C 16.3 °C 1024.9 hPa ESE 6.1 km/h 9.7 km/h 84% 0.0 mm 5 W/m2
20:13 18.7 °C 16.3 °C 1024.9 hPa ESE 1.1 km/h 11.1 km/h 86% 0.0 mm 3 W/m2
20:18 18.4 °C 16.2 °C 1024.9 hPa ESE 3.5 km/h 11.1 km/h 87% 0.0 mm 0 W/m2
20:23 18.3 °C 16.3 °C 1024.9 hPa SE 1.1 km/h 7.2 km/h 88% 0.0 mm 0 W/m2
20:28 18.1 °C 16.1 °C 1024.9 hPa SE 1.1 km/h 11.1 km/h 88% 0.0 mm 0 W/m2
20:33 18.1 °C 16.1 °C 1024.9 hPa SE 7.2 km/h 13.4 km/h 88% 0.0 mm 0 W/m2
20:43 17.9 °C 16.1 °C 1024.9 hPa SE 5.0 km/h 13.4 km/h 89% 0.0 mm 0 W/m2
20:48 17.9 °C 16.1 °C 1025.3 hPa ESE 1.1 km/h 11.1 km/h 89% 0.0 mm 0 W/m2
20:53 17.9 °C 16.1 °C 1024.9 hPa SE 5.0 km/h 17.2 km/h 89% 0.0 mm 0 W/m2
20:58 17.9 °C 16.1 °C 1025.3 hPa SE 6.1 km/h 17.2 km/h 89% 0.0 mm 0 W/m2
21:03 17.8 °C 15.8 °C 1025.6 hPa SE 5.0 km/h 12.2 km/h 88% 0.0 mm 0 W/m2
21:08 17.8 °C 16.0 °C 1025.3 hPa ESE 7.2 km/h 12.2 km/h 89% 0.0 mm 0 W/m2
21:13 17.8 °C 15.8 °C 1025.6 hPa Calm   11.1 km/h 88% 0.0 mm 0 W/m2
21:18 17.7 °C 15.7 °C 1025.6 hPa ESE 2.6 km/h 9.7 km/h 88% 0.0 mm 0 W/m2
21:23 17.6 °C 15.6 °C 1025.6 hPa East 5.0 km/h 9.7 km/h 88% 0.0 mm 0 W/m2
21:28 17.6 °C 15.6 °C 1026.0 hPa East 7.2 km/h 12.2 km/h 88% 0.0 mm 0 W/m2
21:33 17.7 °C 15.5 °C 1026.0 hPa East 5.0 km/h 13.4 km/h 87% 0.0 mm 0 W/m2
21:38 17.8 °C 15.6 °C 1026.0 hPa East 6.1 km/h 13.4 km/h 87% 0.0 mm 0 W/m2
21:43 17.8 °C 15.6 °C 1026.0 hPa East 7.2 km/h 13.4 km/h 87% 0.0 mm 0 W/m2
21:58 17.7 °C 15.5 °C 1026.0 hPa East 6.1 km/h 12.2 km/h 87% 0.0 mm 0 W/m2
22:08 17.6 °C 15.4 °C 1026.6 hPa East 3.5 km/h 8.7 km/h 87% 0.0 mm 0 W/m2
22:18 17.5 °C 15.3 °C 1026.6 hPa Calm   9.7 km/h 87% 0.0 mm 0 W/m2
22:23 17.4 °C 15.2 °C 1026.6 hPa ESE 2.6 km/h 9.7 km/h 87% 0.0 mm 0 W/m2
22:28 17.3 °C 15.3 °C 1026.6 hPa East 1.1 km/h 6.1 km/h 88% 0.0 mm 0 W/m2
22:33 17.3 °C 15.3 °C 1026.6 hPa East 3.5 km/h 6.1 km/h 88% 0.0 mm 0 W/m2
22:38 17.3 °C 15.3 °C 1026.6 hPa East 2.6 km/h 6.1 km/h 88% 0.0 mm 0 W/m2
22:43 17.2 °C 15.2 °C 1027.0 hPa East 1.1 km/h 6.1 km/h 88% 0.0 mm 0 W/m2
22:53 16.9 °C 15.1 °C 1026.6 hPa Calm   3.5 km/h 89% 0.0 mm 0 W/m2
23:03 16.6 °C 14.9 °C 1027.0 hPa Calm   3.5 km/h 90% 0.0 mm 0 W/m2
23:08 16.4 °C 14.8 °C 1027.0 hPa North 1.1 km/h 2.6 km/h 90% 0.0 mm 0 W/m2
23:13 16.2 °C 14.6 °C 1027.0 hPa Calm   3.5 km/h 90% 0.0 mm 0 W/m2
23:18 16.0 °C 14.6 °C 1027.0 hPa Calm   3.5 km/h 91% 0.0 mm 0 W/m2
23:23 15.8 °C 14.5 °C 1027.0 hPa Calm     92% 0.0 mm 0 W/m2
23:28 15.7 °C 14.6 °C 1027.0 hPa Calm     93% 0.0 mm 0 W/m2
23:33 15.6 °C 14.5 °C 1027.0 hPa Calm     93% 0.0 mm 0 W/m2
23:38 15.5 °C 14.6 °C 1027.0 hPa Calm     94% 0.0 mm 0 W/m2
23:43 15.3 °C 14.3 °C 1027.0 hPa Calm     94% 0.0 mm 0 W/m2
Northern Hawkes Bay. New Zealand Historic Data
Compliments of Weather Underground - 2 mb